8°C Temp
6°C Dewpoint
87% Humidity
Temperature
29 KM/H
18 MPH
16 KTS
200°
South South
West

Wind Speed
Overcast
Conditions
Pressure 976.92 (hPa) - 28.85 (in)
Visibility 6.2 (mi) - 10.0 (km)

Current Conditions
EKCH
Location 55(km)
Metar :EKCH 011450Z 20016KT 9999 OVC013 08/06 Q0977 NOSIG
Wed 1st December 15:50 pm

Airport
  Metar Aviation API Data Provided by https://www.checkwx.com/ PHP scripts by weather34.com ©2021